Charles M. Schulz Sonoma County Airport
KSTS : now visible

Airfield :











YOU CAN JOIN US ON...

 
LOGIN :

Register | Disclaimer

   EN    FR    IT 

 









Legend :    VFR   Marginal VFR   IFR   Intensive IFR   Very Intensive IFR
Visi :
Ceiling :
>= 8 km
>= 3000ft
5 to 8 km
1000 to 3000 ft
1500m to 5 km
500 to 1000 ft
800 to 1500m
200 to 500 ft
< 800m
< 200 ft
Symbols :   Thunderstorms  Fog  Heavy snow  Heavy precipitations  Wind > 20 kt






- Airport Elevation : 128 ft


KSTS - Charles M. Schulz Sonoma County

CURRENT METAR :
  • 070753Z AUTO 00000KT 10SM CLR 11/09 A3007 RMK AO2 SLP176 T01060094 402940078

EXPIRED METARs :
  • 070653Z AUTO 16004KT 10SM CLR 11/09 A3006 RMK AO2 SLP173 T01110094
  • 070553Z AUTO 13003KT 10SM CLR 12/09 A3005 RMK AO2 SLP171 T01170094 10289 20117 51014

TAF KSTS
Valid from the 07 at 06:00 until the 08 at 06:00 UTC


070520Z 0706/0806 17005KT P6SM SCT005
FM071000 VRB02KT 1/2SM FG VV002
FM071700 VRB03KT P6SM SKC
FM072100 17007KT P6SM SKC
KZOA FIR / North America



MET'MAP, your aeronautical weather chart ! - Copyright ORBIFLY December 2007 - Disclaimer

ORBIFLY MET'MAP TEAM :

Programming & Development : Alexandra Zaïnal
Original concept : Baudouin d'Aumeries
Technical & hardware support : Manuel Goepfert
Assistance : Marc-Olivier Méhu




SOURCES & CREDITS :

   NOAA       Earth
Advisory